createdAt,value
2019-02-18T00:00:44.418Z,2.22
2019-02-18T00:03:14.941Z,2.09
2019-02-18T00:05:45.475Z,1.98
2019-02-18T00:08:16.111Z,1.83
2019-02-18T00:10:46.633Z,1.65
2019-02-18T00:13:17.371Z,1.57
2019-02-18T00:15:49.491Z,1.57
2019-02-18T00:18:20.031Z,1.54
2019-02-18T00:20:50.597Z,1.62
2019-02-18T00:23:21.126Z,1.70
2019-02-18T00:25:51.660Z,1.77
2019-02-18T00:28:22.196Z,1.82
2019-02-18T00:30:52.718Z,1.88
2019-02-18T00:33:23.249Z,1.93
2019-02-18T00:35:53.778Z,1.84
2019-02-18T00:38:24.211Z,1.83
2019-02-18T00:40:54.747Z,1.91
2019-02-18T00:43:25.173Z,1.95
2019-02-18T00:45:55.706Z,1.99
2019-02-18T00:48:26.238Z,2.02
2019-02-18T00:50:56.769Z,2.01
2019-02-18T00:53:27.297Z,2.01
2019-02-18T00:55:57.707Z,1.95
2019-02-18T00:58:28.147Z,1.76
2019-02-18T01:00:58.682Z,1.68
2019-02-18T01:03:29.110Z,1.55
2019-02-18T01:05:59.529Z,1.38
2019-02-18T01:08:29.964Z,1.29
2019-02-18T01:11:00.466Z,1.27
2019-02-18T01:13:30.925Z,1.30
2019-02-18T01:16:01.350Z,1.27
2019-02-18T01:18:31.878Z,1.25
2019-02-18T01:21:04.053Z,1.22
2019-02-18T01:23:36.218Z,1.25
2019-02-18T01:26:08.186Z,1.29
2019-02-18T01:28:40.120Z,1.35
2019-02-18T01:31:12.111Z,1.42
2019-02-18T01:33:44.078Z,1.52
2019-02-18T01:36:16.146Z,1.62
2019-02-18T01:38:46.983Z,1.75
2019-02-18T01:41:17.572Z,1.81
2019-02-18T01:43:48.049Z,1.85
2019-02-18T01:46:19.693Z,1.87
2019-02-18T01:48:50.124Z,1.93
2019-02-18T01:51:20.559Z,1.93
2019-02-18T01:53:50.977Z,1.89
2019-02-18T01:56:21.411Z,1.91
2019-02-18T01:58:51.841Z,1.94
2019-02-18T02:01:22.260Z,1.93
2019-02-18T02:03:52.664Z,1.87
2019-02-18T02:06:23.226Z,1.83
2019-02-18T02:08:53.658Z,1.81
2019-02-18T02:11:24.097Z,1.80
2019-02-18T02:13:54.511Z,1.73
2019-02-18T02:16:24.943Z,1.72
2019-02-18T02:18:55.397Z,1.77
2019-02-18T02:21:25.852Z,1.64
2019-02-18T02:23:56.325Z,1.65
2019-02-18T02:26:26.733Z,1.57
2019-02-18T02:28:57.177Z,1.49
2019-02-18T02:31:27.609Z,1.44
2019-02-18T02:33:58.075Z,1.49
2019-02-18T02:36:28.600Z,1.52
2019-02-18T02:38:59.106Z,1.54
2019-02-18T02:41:29.522Z,1.51
2019-02-18T02:43:59.958Z,1.54
2019-02-18T02:46:30.387Z,1.55
2019-02-18T02:49:00.796Z,1.49
2019-02-18T02:51:31.238Z,1.45
2019-02-18T02:54:01.673Z,1.38
2019-02-18T02:56:32.092Z,1.37
2019-02-18T02:59:02.533Z,1.29
2019-02-18T03:01:32.962Z,1.27
2019-02-18T03:04:03.489Z,1.28
2019-02-18T03:06:33.898Z,1.27
2019-02-18T03:12:05.494Z,1.20
2019-02-18T03:14:35.916Z,1.12
2019-02-18T03:17:06.344Z,1.08
2019-02-18T03:19:36.744Z,1.04
2019-02-18T03:22:07.197Z,1.04
2019-02-18T03:24:37.628Z,1.02
2019-02-18T03:27:08.060Z,1.01
2019-02-18T03:29:58.106Z,1.01
2019-02-18T03:32:28.948Z,1.05
2019-02-18T03:35:00.641Z,1.08
2019-02-18T03:37:31.583Z,1.09
2019-02-18T03:40:02.019Z,1.16
2019-02-18T03:42:32.638Z,1.17
2019-02-18T03:45:03.169Z,1.17
2019-02-18T03:47:33.602Z,1.15
2019-02-18T03:50:04.441Z,1.14
2019-02-18T03:52:34.843Z,1.12
2019-02-18T03:55:08.861Z,1.14
2019-02-18T03:57:39.314Z,1.18
2019-02-18T04:00:12.333Z,1.22
2019-02-18T04:02:42.835Z,1.30
2019-02-18T04:05:13.366Z,1.34
2019-02-18T04:07:43.893Z,1.33
2019-02-18T04:10:14.426Z,1.42
2019-02-18T04:12:44.848Z,1.44
2019-02-18T04:15:17.079Z,1.50
2019-02-18T04:17:47.554Z,1.54
2019-02-18T04:20:17.973Z,1.57
2019-02-18T04:22:48.506Z,1.56
2019-02-18T04:25:18.935Z,1.55
2019-02-18T04:27:49.462Z,1.53
2019-02-18T04:30:19.901Z,1.51
2019-02-18T04:32:50.429Z,1.45
2019-02-18T04:35:20.847Z,1.35
2019-02-18T04:37:51.281Z,1.34
2019-02-18T04:40:21.714Z,1.33
2019-02-18T04:42:52.131Z,1.33
2019-02-18T04:45:22.565Z,1.33
2019-02-18T04:47:52.996Z,1.28
2019-02-18T04:50:23.624Z,1.31
2019-02-18T04:52:54.069Z,1.30
2019-02-18T04:55:24.588Z,1.31
2019-02-18T04:57:55.120Z,1.28
2019-02-18T05:00:25.540Z,1.27
2019-02-18T05:02:55.973Z,1.22
2019-02-18T05:05:26.402Z,0.99
2019-02-18T05:07:56.799Z,0.86
2019-02-18T05:10:27.257Z,0.74
2019-02-18T05:12:57.688Z,0.62
2019-02-18T05:15:28.091Z,0.63
2019-02-18T05:17:58.547Z,0.63
2019-02-18T05:20:28.975Z,0.60
2019-02-18T05:22:59.393Z,0.48
2019-02-18T05:25:29.830Z,0.45
2019-02-18T05:28:00.358Z,0.54
2019-02-18T05:30:30.747Z,0.60
2019-02-18T05:33:01.236Z,0.69
2019-02-18T05:35:31.740Z,0.73
2019-02-18T05:38:02.177Z,0.78
2019-02-18T05:40:32.610Z,0.81
2019-02-18T05:43:03.146Z,0.85
2019-02-18T05:45:33.542Z,0.90
2019-02-18T05:48:03.992Z,0.91
2019-02-18T05:50:35.446Z,0.95
2019-02-18T05:53:05.879Z,0.97
2019-02-18T05:55:36.294Z,1.01
2019-02-18T05:58:06.734Z,0.99
2019-02-18T06:00:37.116Z,0.98
2019-02-18T06:03:07.690Z,1.02
2019-02-18T06:05:38.224Z,1.03
2019-02-18T06:08:08.727Z,1.06
2019-02-18T06:10:39.148Z,1.11
2019-02-18T06:13:09.552Z,1.11
2019-02-18T06:15:39.997Z,1.15
2019-02-18T06:18:10.457Z,1.19
2019-02-18T06:20:40.987Z,1.23
2019-02-18T06:23:11.418Z,1.26
2019-02-18T06:25:41.948Z,1.19
2019-02-18T06:28:12.480Z,1.19
2019-02-18T06:30:42.920Z,1.18
2019-02-18T06:33:13.445Z,1.25
2019-02-18T06:35:43.862Z,1.29
2019-02-18T06:38:14.511Z,1.20
2019-02-18T06:40:45.034Z,1.18
2019-02-18T06:43:15.564Z,1.21
2019-02-18T06:45:51.825Z,1.32
2019-02-18T06:48:23.962Z,1.48
2019-02-18T06:50:54.530Z,1.68
2019-02-18T06:53:24.943Z,1.88
2019-02-18T06:55:55.349Z,2.02
2019-02-18T06:58:27.466Z,2.19
2019-02-18T07:01:02.236Z,2.33
2019-02-18T07:03:37.253Z,2.44
2019-02-18T07:06:09.384Z,2.58
2019-02-18T07:08:50.703Z,2.70
2019-02-18T07:11:22.833Z,2.84
2019-02-18T07:13:53.363Z,2.88
2019-02-18T07:16:23.763Z,2.97
2019-02-18T07:18:54.215Z,2.97
2019-02-18T07:21:24.645Z,2.96
2019-02-18T07:23:55.080Z,2.97
2019-02-18T07:26:25.468Z,3.04
2019-02-18T07:28:55.877Z,3.15
2019-02-18T07:31:26.280Z,3.23
2019-02-18T07:33:56.786Z,3.28
2019-02-18T07:36:27.214Z,3.37
2019-02-18T07:38:57.625Z,3.50
2019-02-18T07:41:28.177Z,3.58
2019-02-18T07:43:58.714Z,3.67
2019-02-18T07:46:29.127Z,3.73
2019-02-18T07:48:59.584Z,3.80
2019-02-18T07:51:29.993Z,3.84
2019-02-18T07:54:00.494Z,3.84
2019-02-18T07:56:31.051Z,4.08
2019-02-18T07:59:01.583Z,4.22
2019-02-18T08:01:32.085Z,4.35
2019-02-18T08:04:02.483Z,4.45
2019-02-18T08:06:32.965Z,4.59
2019-02-18T08:09:05.239Z,4.71
2019-02-18T08:11:35.687Z,4.81
2019-02-18T08:14:07.485Z,4.98
2019-02-18T08:16:38.018Z,5.12
2019-02-18T08:19:08.523Z,5.27
2019-02-18T08:21:38.929Z,5.38
2019-02-18T08:24:10.336Z,5.49
2019-02-18T08:26:40.816Z,5.68
2019-02-18T08:29:11.283Z,5.82
2019-02-18T08:31:41.814Z,6.00
2019-02-18T08:34:12.218Z,6.14
2019-02-18T08:36:42.621Z,6.28
2019-02-18T08:39:13.006Z,6.43
2019-02-18T08:41:43.532Z,6.46
2019-02-18T08:44:14.181Z,6.45
2019-02-18T08:46:44.693Z,6.59
2019-02-18T08:49:15.096Z,6.72
2019-02-18T08:51:45.575Z,6.86
2019-02-18T08:54:17.042Z,6.98
2019-02-18T08:56:47.574Z,7.14
2019-02-18T08:59:19.494Z,7.27
2019-02-18T09:01:50.037Z,7.40
2019-02-18T09:04:20.441Z,7.55
2019-02-18T09:06:50.854Z,7.56
2019-02-18T09:09:21.416Z,7.69
2019-02-18T09:11:51.837Z,7.86
2019-02-18T09:14:22.368Z,8.01
2019-02-18T09:16:52.899Z,7.98
2019-02-18T09:19:23.333Z,8.09
2019-02-18T09:21:55.397Z,8.17
2019-02-18T09:24:27.463Z,8.29
2019-02-18T09:26:57.857Z,8.35
2019-02-18T09:29:28.319Z,8.54
2019-02-18T09:31:58.849Z,8.67
2019-02-18T09:34:29.255Z,8.80
2019-02-18T09:36:59.661Z,8.88
2019-02-18T09:39:31.510Z,9.01
2019-02-18T09:42:02.152Z,9.12
2019-02-18T09:44:32.663Z,9.23
2019-02-18T09:47:03.098Z,9.40
2019-02-18T09:49:33.586Z,9.49
2019-02-18T09:52:03.994Z,9.59
2019-02-18T09:54:34.481Z,9.65
2019-02-18T09:57:04.883Z,9.78
2019-02-18T09:59:35.622Z,9.92
2019-02-18T10:02:06.062Z,9.92
2019-02-18T10:04:36.486Z,9.98
2019-02-18T10:07:07.063Z,10.12
2019-02-18T10:09:37.458Z,10.16
2019-02-18T10:12:17.755Z,10.26
2019-02-18T10:14:40.087Z,10.41
2019-02-18T10:17:10.492Z,10.51
2019-02-18T10:19:42.995Z,10.53
2019-02-18T10:22:13.260Z,10.63
2019-02-18T10:24:50.643Z,10.71
2019-02-18T10:27:16.735Z,10.81
2019-02-18T10:29:47.133Z,10.80
2019-02-18T10:32:17.628Z,10.90
2019-02-18T10:34:48.028Z,10.94
2019-02-18T10:37:18.433Z,11.06
2019-02-18T10:39:48.850Z,11.14
2019-02-18T10:42:19.346Z,11.18
2019-02-18T10:44:49.777Z,11.20
2019-02-18T10:47:20.618Z,11.33
2019-02-18T10:49:51.035Z,11.45
2019-02-18T10:52:22.604Z,11.55
2019-02-18T10:54:53.047Z,11.63
2019-02-18T10:57:23.550Z,11.71
2019-02-18T10:59:54.497Z,11.76
2019-02-18T11:02:24.919Z,11.81
2019-02-18T11:04:55.454Z,11.71
2019-02-18T11:07:26.186Z,11.74
2019-02-18T11:09:56.588Z,11.86
2019-02-18T11:12:27.040Z,11.96
2019-02-18T11:14:57.439Z,12.09
2019-02-18T11:17:27.904Z,12.19
2019-02-18T11:19:58.333Z,12.27
2019-02-18T11:22:28.725Z,12.23
2019-02-18T11:24:59.187Z,12.17
2019-02-18T11:27:29.719Z,12.24
2019-02-18T11:30:00.335Z,12.26
2019-02-18T11:32:30.880Z,12.29
2019-02-18T11:35:01.319Z,12.47
2019-02-18T11:37:33.558Z,12.35
2019-02-18T11:40:06.548Z,12.49
2019-02-18T11:42:37.617Z,12.61
2019-02-18T11:45:10.953Z,12.72
2019-02-18T11:47:41.441Z,12.74
2019-02-18T11:50:13.433Z,12.72
2019-02-18T11:52:43.873Z,12.80
2019-02-18T11:55:14.777Z,12.89
2019-02-18T11:57:45.610Z,12.90
2019-02-18T12:00:17.119Z,12.93
2019-02-18T12:02:47.987Z,13.04
2019-02-18T12:05:18.385Z,13.15
2019-02-18T12:07:48.964Z,13.16
2019-02-18T12:10:19.359Z,13.23
2019-02-18T12:12:49.811Z,13.39
2019-02-18T12:15:21.364Z,13.42
2019-02-18T12:17:52.004Z,13.48
2019-02-18T12:20:23.754Z,13.47
2019-02-18T12:22:54.226Z,13.41
2019-02-18T12:25:25.008Z,13.52
2019-02-18T12:27:56.891Z,13.50
2019-02-18T12:30:28.368Z,13.61
2019-02-18T12:32:58.875Z,13.72
2019-02-18T12:35:31.546Z,13.76
2019-02-18T12:38:01.473Z,13.80
2019-02-18T12:40:31.895Z,13.80
2019-02-18T12:43:02.302Z,13.88
2019-02-18T12:45:32.761Z,13.91
2019-02-18T12:48:03.175Z,13.95
2019-02-18T12:50:33.574Z,14.04
2019-02-18T12:53:04.545Z,14.08
2019-02-18T12:55:36.209Z,14.14
2019-02-18T12:58:06.835Z,14.15
2019-02-18T13:00:37.237Z,14.05
2019-02-18T13:03:07.700Z,14.12
2019-02-18T13:05:38.232Z,14.02
2019-02-18T13:08:08.956Z,14.07
2019-02-18T13:10:39.488Z,14.12
2019-02-18T13:13:10.027Z,14.08
2019-02-18T13:15:40.425Z,14.13
2019-02-18T13:18:10.839Z,14.12
2019-02-18T13:20:41.268Z,14.14
2019-02-18T13:23:12.142Z,14.18
2019-02-18T13:25:47.486Z,14.21
2019-02-18T13:28:14.848Z,14.30
2019-02-18T13:30:45.379Z,14.38
2019-02-18T13:33:15.799Z,14.29
2019-02-18T13:35:46.196Z,14.22
2019-02-18T13:38:17.571Z,14.26
2019-02-18T13:40:47.966Z,14.25
2019-02-18T13:43:18.394Z,14.21
2019-02-18T13:45:48.870Z,14.16
2019-02-18T13:48:19.269Z,14.28
2019-02-18T13:50:49.948Z,14.30
2019-02-18T13:53:20.463Z,14.21
2019-02-18T13:55:52.114Z,14.17
2019-02-18T13:58:22.597Z,14.13
2019-02-18T14:00:53.124Z,14.16
2019-02-18T14:03:23.556Z,14.17
2019-02-18T14:05:54.074Z,14.12
2019-02-18T14:08:24.491Z,14.12
2019-02-18T14:10:54.962Z,14.11
2019-02-18T14:13:26.352Z,14.13
2019-02-18T14:15:56.811Z,14.18
2019-02-18T14:18:27.220Z,14.15
2019-02-18T14:20:57.642Z,14.11
2019-02-18T14:23:28.092Z,14.08
2019-02-18T14:25:58.624Z,14.09
2019-02-18T14:28:29.901Z,14.01
2019-02-18T14:31:00.633Z,14.00
2019-02-18T14:33:31.027Z,13.96
2019-02-18T14:36:01.423Z,13.96
2019-02-18T14:38:31.834Z,13.94
2019-02-18T14:41:02.246Z,13.95
2019-02-18T14:43:32.656Z,13.93
2019-02-18T14:46:03.051Z,13.91
2019-02-18T14:48:33.444Z,13.88
2019-02-18T14:51:03.846Z,13.80
2019-02-18T14:53:34.350Z,13.84
2019-02-18T14:56:07.419Z,13.82
2019-02-18T14:58:37.832Z,13.78
2019-02-18T15:01:08.446Z,13.77
2019-02-18T15:03:39.003Z,13.75
2019-02-18T15:06:09.409Z,13.67
2019-02-18T15:08:39.897Z,13.70
2019-02-18T15:11:10.669Z,13.72
2019-02-18T15:13:41.165Z,13.67
2019-02-18T15:16:11.583Z,13.65
2019-02-18T15:18:42.004Z,13.63
2019-02-18T15:21:12.544Z,13.60
2019-02-18T15:23:42.978Z,13.55
2019-02-18T15:26:13.387Z,13.52
2019-02-18T15:28:43.790Z,13.49
2019-02-18T15:31:14.191Z,13.36
2019-02-18T15:33:44.594Z,13.26
2019-02-18T15:36:15.071Z,13.17
2019-02-18T15:38:45.857Z,13.09
2019-02-18T15:41:16.300Z,13.00
2019-02-18T15:43:46.681Z,12.90
2019-02-18T15:46:17.095Z,12.85
2019-02-18T15:48:47.502Z,12.78
2019-02-18T15:51:17.902Z,12.69
2019-02-18T15:53:48.313Z,12.58
2019-02-18T15:56:18.990Z,12.46
2019-02-18T15:58:49.392Z,12.36
2019-02-18T16:01:19.793Z,12.22
2019-02-18T16:03:50.199Z,12.07
2019-02-18T16:06:20.594Z,11.91
2019-02-18T16:08:51.051Z,11.72
2019-02-18T16:11:21.459Z,11.66
2019-02-18T16:13:51.923Z,11.56
2019-02-18T16:16:22.315Z,11.48
2019-02-18T16:18:53.435Z,11.39
2019-02-18T16:21:23.836Z,11.21
2019-02-18T16:23:54.305Z,11.12
2019-02-18T16:26:24.708Z,11.06
2019-02-18T16:28:55.271Z,10.98
2019-02-18T16:31:25.771Z,10.87
2019-02-18T16:33:56.219Z,10.79
2019-02-18T16:36:26.628Z,10.63
2019-02-18T16:38:57.459Z,10.56
2019-02-18T16:41:27.886Z,10.54
2019-02-18T16:43:58.291Z,10.44
2019-02-18T16:46:29.238Z,10.28
2019-02-18T16:48:59.945Z,10.12
2019-02-18T16:51:31.878Z,9.99
2019-02-18T16:54:02.270Z,9.88
2019-02-18T16:56:32.677Z,9.77
2019-02-18T16:59:03.549Z,9.65
2019-02-18T17:01:33.943Z,9.53
2019-02-18T17:04:04.358Z,9.37
2019-02-18T17:06:34.768Z,9.22
2019-02-18T17:09:08.535Z,9.08
2019-02-18T17:11:39.128Z,9.00
2019-02-18T17:14:09.540Z,8.89
2019-02-18T17:16:39.946Z,8.83
2019-02-18T17:19:10.466Z,8.75
2019-02-18T17:21:40.948Z,8.68
2019-02-18T17:24:11.357Z,8.62
2019-02-18T17:26:41.970Z,8.56
2019-02-18T17:29:12.376Z,8.43
2019-02-18T17:31:42.793Z,8.39
2019-02-18T17:34:13.214Z,8.32
2019-02-18T17:36:43.632Z,8.22
2019-02-18T17:39:14.032Z,8.20
2019-02-18T17:41:44.517Z,8.12
2019-02-18T17:44:20.184Z,7.99
2019-02-18T17:46:47.223Z,7.92
2019-02-18T17:49:17.624Z,7.77
2019-02-18T17:51:48.032Z,7.68
2019-02-18T17:54:18.529Z,7.61
2019-02-18T17:56:48.925Z,7.50
2019-02-18T17:59:19.356Z,7.45
2019-02-18T18:01:49.766Z,7.35
2019-02-18T18:04:20.171Z,7.28
2019-02-18T18:06:51.047Z,7.22
2019-02-18T18:09:21.443Z,7.17
2019-02-18T18:11:51.874Z,7.02
2019-02-18T18:14:22.337Z,6.95
2019-02-18T18:16:52.734Z,6.90
2019-02-18T18:19:23.137Z,6.77
2019-02-18T18:21:53.657Z,6.68
2019-02-18T18:24:24.056Z,6.59
2019-02-18T18:26:54.465Z,6.54
2019-02-18T18:29:24.862Z,6.49
2019-02-18T18:31:55.338Z,6.42
2019-02-18T18:34:26.134Z,6.40
2019-02-18T18:36:56.605Z,6.34
2019-02-18T18:39:27.140Z,6.33
2019-02-18T18:41:57.671Z,6.27
2019-02-18T18:44:28.196Z,6.19
2019-02-18T18:46:58.685Z,6.14
2019-02-18T18:49:29.153Z,6.07
2019-02-18T18:51:59.736Z,5.98
2019-02-18T18:54:30.223Z,5.92
2019-02-18T18:57:00.625Z,5.88
2019-02-18T18:59:31.041Z,5.83
2019-02-18T19:02:01.456Z,5.75
2019-02-18T19:04:31.874Z,5.68
2019-02-18T19:07:02.353Z,5.64
2019-02-18T19:09:32.766Z,5.59
2019-02-18T19:12:03.178Z,5.52
2019-02-18T19:14:33.763Z,5.45
2019-02-18T19:17:04.175Z,5.30
2019-02-18T19:19:34.709Z,5.29
2019-02-18T19:22:05.236Z,5.24
2019-02-18T19:24:35.660Z,5.26
2019-02-18T19:27:06.495Z,5.27
2019-02-18T19:29:36.924Z,5.25
2019-02-18T19:32:07.334Z,5.24
2019-02-18T19:34:37.888Z,5.16
2019-02-18T19:37:08.339Z,5.11
2019-02-18T19:39:40.279Z,5.11
2019-02-18T19:42:10.694Z,5.06
2019-02-18T19:44:41.102Z,5.03
2019-02-18T19:47:11.508Z,4.95
2019-02-18T19:49:41.907Z,4.90
